createdAt,value
2019-05-05T00:00:38.404Z,645.1
2019-05-05T00:01:40.816Z,644.9
2019-05-05T00:03:49.783Z,644.7
2019-05-05T00:04:54.388Z,644.7
2019-05-05T00:05:56.902Z,644.6
2019-05-05T00:06:58.765Z,644.4
2019-05-05T00:08:00.633Z,644.4
2019-05-05T00:09:05.198Z,644.5
2019-05-05T00:10:09.686Z,644.2
2019-05-05T00:11:12.711Z,643.6
2019-05-05T00:12:16.405Z,643.9
2019-05-05T00:13:18.837Z,643.5
2019-05-05T00:14:21.255Z,643.7
2019-05-05T00:15:25.556Z,643.5
2019-05-05T00:16:27.705Z,643.5
2019-05-05T00:17:30.672Z,644
2019-05-05T00:18:34.815Z,644.3
2019-05-05T00:19:37.844Z,644.1
2019-05-05T00:20:40.336Z,644
2019-05-05T00:22:49.190Z,643.6
2019-05-05T00:23:51.620Z,643.8
2019-05-05T00:24:56.055Z,643.7
2019-05-05T00:25:57.943Z,643.6
2019-05-05T00:27:00.364Z,643.2
2019-05-05T00:28:02.510Z,643.4
2019-05-05T00:29:06.338Z,643.2
2019-05-05T00:30:08.759Z,643
2019-05-05T00:31:11.173Z,642.6
2019-05-05T00:32:15.914Z,642.7
2019-05-05T00:33:18.049Z,642.7
2019-05-05T00:34:20.221Z,642.4
2019-05-05T00:35:25.042Z,642.3
2019-05-05T00:36:27.667Z,642.2
2019-05-05T00:37:30.092Z,641.8
2019-05-05T00:38:32.247Z,641.8
2019-05-05T00:39:36.833Z,641.9
2019-05-05T00:40:39.266Z,641.8
2019-05-05T00:41:41.418Z,641.6
2019-05-05T00:42:46.065Z,642
2019-05-05T00:43:48.483Z,641.6
2019-05-05T00:44:51.080Z,641.9
2019-05-05T00:45:53.238Z,642.1
2019-05-05T00:46:56.723Z,642.3
2019-05-05T00:47:59.145Z,641.9
2019-05-05T00:49:01.573Z,641.9
2019-05-05T00:50:06.233Z,642
2019-05-05T00:51:08.105Z,641.8
2019-05-05T00:52:10.533Z,641.9
2019-05-05T00:54:19.131Z,641.9
2019-05-05T00:55:20.993Z,642.3
2019-05-05T00:56:25.522Z,642
2019-05-05T00:57:27.956Z,642.2
2019-05-05T00:58:30.110Z,642.3
2019-05-05T00:59:35.191Z,642.1
2019-05-05T01:00:37.623Z,641.8
2019-05-05T01:01:40.043Z,641.8
2019-05-05T01:02:42.463Z,641.7
2019-05-05T01:03:46.142Z,641.5
2019-05-05T01:04:48.289Z,641.5
2019-05-05T01:05:50.434Z,641.4
2019-05-05T01:06:54.471Z,641.1
2019-05-05T01:07:56.908Z,641.1
2019-05-05T01:08:59.657Z,641
2019-05-05T01:10:02.318Z,640.7
2019-05-05T01:11:05.850Z,640.5
2019-05-05T01:12:08.002Z,640.6
2019-05-05T01:13:10.171Z,639.7
2019-05-05T01:14:14.375Z,640.4
2019-05-05T01:15:16.775Z,639.9
2019-05-05T01:16:19.206Z,640
2019-05-05T01:17:21.355Z,640.5
2019-05-05T01:18:25.981Z,640.3
2019-05-05T01:19:27.837Z,639.6
2019-05-05T01:20:29.976Z,639.6
2019-05-05T01:21:32.460Z,639.5
2019-05-05T01:22:36.151Z,639.1
2019-05-05T01:23:38.573Z,638.9
2019-05-05T01:24:40.445Z,638.7
2019-05-05T01:25:42.871Z,638.8
2019-05-05T01:26:46.585Z,638.8
2019-05-05T01:27:49.650Z,638.5
2019-05-05T01:28:51.795Z,638.7
2019-05-05T01:29:56.481Z,638.6
2019-05-05T01:30:58.094Z,638.7
2019-05-05T01:32:00.240Z,638.7
2019-05-05T01:33:02.943Z,638.2
2019-05-05T01:34:06.806Z,638.8
2019-05-05T01:35:08.962Z,638.3
2019-05-05T01:36:11.385Z,638.4
2019-05-05T01:37:15.619Z,638.3
2019-05-05T01:38:18.043Z,638.4
2019-05-05T01:39:21.114Z,638.2
2019-05-05T01:40:25.213Z,638
2019-05-05T01:41:28.155Z,638.1
2019-05-05T01:42:30.587Z,638.1
2019-05-05T01:43:34.455Z,638
2019-05-05T01:44:37.245Z,638
2019-05-05T01:45:39.125Z,638
2019-05-05T01:46:41.022Z,638.4
2019-05-05T01:47:45.702Z,638.6
2019-05-05T01:48:48.144Z,638.7
2019-05-05T01:49:49.991Z,638.4
2019-05-05T01:51:58.855Z,638
2019-05-05T01:53:01.467Z,637.9
2019-05-05T01:55:09.755Z,638.4
2019-05-05T01:56:12.169Z,638.3
2019-05-05T01:57:16.365Z,638.4
2019-05-05T01:58:18.797Z,638.2
2019-05-05T01:59:21.224Z,638
2019-05-05T02:00:25.883Z,638
2019-05-05T02:01:29.108Z,638.3
2019-05-05T02:02:31.436Z,638.3
2019-05-05T02:04:39.532Z,638.2
2019-05-05T02:05:42.265Z,638.2
2019-05-05T02:06:47.126Z,638.3
2019-05-05T02:07:50.482Z,638.9
2019-05-05T02:08:55.351Z,638.4
2019-05-05T02:09:57.771Z,638.5
2019-05-05T02:10:59.919Z,638.7
2019-05-05T02:12:01.962Z,638.8
2019-05-05T02:13:06.652Z,639
2019-05-05T02:14:09.425Z,639
2019-05-05T02:15:11.296Z,639.1
2019-05-05T02:17:24.656Z,638.9
2019-05-05T02:18:28.239Z,639.1
2019-05-05T02:19:30.376Z,639.3
2019-05-05T02:20:34.935Z,639.2
2019-05-05T02:21:36.863Z,639.4
2019-05-05T02:22:39.483Z,639.4
2019-05-05T02:23:42.697Z,639.7
2019-05-05T02:24:46.177Z,639.7
2019-05-05T02:25:48.065Z,639.9
2019-05-05T02:26:50.492Z,640.1
2019-05-05T02:27:53.114Z,639.7
2019-05-05T02:28:57.177Z,639.5
2019-05-05T02:29:59.341Z,639.4
2019-05-05T02:31:01.781Z,639.6
2019-05-05T02:33:09.188Z,639.3
2019-05-05T02:34:12.174Z,639.6
2019-05-05T02:36:19.770Z,639.2
2019-05-05T02:37:21.915Z,639.3
2019-05-05T02:39:29.814Z,639.3
2019-05-05T02:40:31.405Z,639.3
2019-05-05T02:42:39.744Z,639.2
2019-05-05T02:43:41.643Z,639.2
2019-05-05T02:45:49.042Z,639.4
2019-05-05T02:46:51.458Z,639.1
2019-05-05T02:48:58.317Z,639.2
2019-05-05T02:50:00.490Z,639.3
2019-05-05T02:52:10.104Z,639.8
2019-05-05T02:53:15.228Z,639
2019-05-05T02:54:17.651Z,639.1
2019-05-05T02:55:19.796Z,638.5
2019-05-05T02:56:24.229Z,638.6
2019-05-05T02:57:26.381Z,638.5
2019-05-05T02:58:28.987Z,638.5
2019-05-05T02:59:31.815Z,638.4
2019-05-05T03:00:36.323Z,638.6
2019-05-05T03:01:38.747Z,638.8
2019-05-05T03:02:42.958Z,638.6
2019-05-05T03:03:48.065Z,637.8
2019-05-05T03:04:50.484Z,637.7
2019-05-05T03:05:54.805Z,637.6
2019-05-05T03:06:56.968Z,637.6
2019-05-05T03:07:59.385Z,637.3
2019-05-05T03:09:04.260Z,637.5
2019-05-05T03:10:06.849Z,637.3
2019-05-05T03:11:09.410Z,637.6
2019-05-05T03:12:15.445Z,637.3
2019-05-05T03:13:17.331Z,637.1
2019-05-05T03:14:19.694Z,636.5
2019-05-05T03:15:25.437Z,636.5
2019-05-05T03:16:27.852Z,636.7
2019-05-05T03:17:30.885Z,636.7
2019-05-05T03:18:35.244Z,636.2
2019-05-05T03:19:38.318Z,636.1
2019-05-05T03:20:40.449Z,636.1
2019-05-05T03:21:44.637Z,636.3
2019-05-05T03:22:46.794Z,636
2019-05-05T03:23:48.951Z,635.9
2019-05-05T03:24:51.071Z,635.7
2019-05-05T03:25:55.563Z,635.9
2019-05-05T03:26:58.595Z,635
2019-05-05T03:28:01.036Z,635.2
2019-05-05T03:29:05.724Z,635.7
2019-05-05T03:30:07.899Z,635.5
2019-05-05T03:31:11.548Z,635.8
2019-05-05T03:33:18.936Z,635.3
2019-05-05T03:34:23.730Z,635.1
2019-05-05T03:35:28.174Z,635.6
2019-05-05T03:36:31.219Z,635
2019-05-05T03:37:36.944Z,635.6
2019-05-05T03:38:39.380Z,635.3
2019-05-05T03:39:41.800Z,635.4
2019-05-05T03:40:45.578Z,635.3
2019-05-05T03:41:47.444Z,634.9
2019-05-05T03:42:49.594Z,635.4
2019-05-05T03:43:55.246Z,634.5
2019-05-05T03:44:58.910Z,635
2019-05-05T03:46:01.336Z,635
2019-05-05T03:47:05.535Z,634.7
2019-05-05T03:48:07.962Z,634.5
2019-05-05T03:49:10.710Z,634.7
2019-05-05T03:50:15.844Z,634.8
2019-05-05T03:52:25.358Z,635
2019-05-05T03:53:27.508Z,634.5
2019-05-05T03:54:29.924Z,634.8
2019-05-05T03:55:32.080Z,635
2019-05-05T03:57:39.192Z,634.8
2019-05-05T03:58:41.340Z,634.6
2019-05-05T04:00:48.482Z,634.7
2019-05-05T04:01:51.792Z,634.6
2019-05-05T04:02:55.816Z,634.4
2019-05-05T04:03:58.243Z,634.7
2019-05-05T04:05:00.378Z,634.8
2019-05-05T04:06:04.836Z,634.8
2019-05-05T04:07:06.981Z,634.7
2019-05-05T04:08:09.140Z,634.7
2019-05-05T04:09:13.585Z,634.5
2019-05-05T04:10:16.147Z,634.5
2019-05-05T04:11:18.574Z,634.1
2019-05-05T04:12:20.712Z,633.8
2019-05-05T04:13:24.636Z,633.8
2019-05-05T04:14:27.157Z,633.7
2019-05-05T04:15:29.574Z,633.7
2019-05-05T04:16:34.062Z,633.8
2019-05-05T04:17:37.423Z,634.1
2019-05-05T04:18:39.854Z,633.9
2019-05-05T04:19:44.544Z,634.1
2019-05-05T04:20:46.960Z,633.8
2019-05-05T04:21:49.323Z,633.8
2019-05-05T04:22:51.462Z,633.4
2019-05-05T04:23:55.402Z,633.6
2019-05-05T04:24:58.010Z,633.5
2019-05-05T04:26:00.646Z,632.9
2019-05-05T04:27:05.080Z,633.1
2019-05-05T04:28:07.824Z,632.6
2019-05-05T04:29:09.984Z,632.4
2019-05-05T04:30:14.684Z,632.5
2019-05-05T04:31:17.269Z,632.5
2019-05-05T04:32:19.699Z,632.7
2019-05-05T04:33:24.104Z,631.9
2019-05-05T04:34:26.533Z,632.1
2019-05-05T04:35:29.700Z,632.3
2019-05-05T04:36:34.021Z,632.4
2019-05-05T04:37:36.494Z,632.4
2019-05-05T04:38:38.914Z,631.9
2019-05-05T04:39:41.078Z,631.6
2019-05-05T04:40:45.616Z,631.1
2019-05-05T04:41:47.479Z,631.4
2019-05-05T04:42:49.648Z,630.8
2019-05-05T04:43:54.471Z,630.7
2019-05-05T04:44:58.904Z,630.7
2019-05-05T04:46:01.528Z,630.1
2019-05-05T04:47:06.320Z,630.2
2019-05-05T04:48:07.942Z,630.4
2019-05-05T04:49:10.963Z,630.1
2019-05-05T04:51:19.323Z,629.7
2019-05-05T04:52:23.461Z,629.8
2019-05-05T04:53:26.144Z,629.7
2019-05-05T04:54:28.009Z,629.2
2019-05-05T04:55:29.904Z,629.1
2019-05-05T04:56:34.744Z,629.1
2019-05-05T04:57:37.434Z,628.7
2019-05-05T04:58:39.854Z,628.8
2019-05-05T04:59:44.263Z,628.9
2019-05-05T05:00:46.870Z,628.4
2019-05-05T05:01:49.016Z,628.4
2019-05-05T05:02:51.352Z,628.3
2019-05-05T05:03:55.716Z,628.4
2019-05-05T05:04:58.137Z,628.7
2019-05-05T05:06:00.558Z,629
2019-05-05T05:07:05.062Z,628.6
2019-05-05T05:08:07.692Z,628.5
2019-05-05T05:09:10.104Z,628.1
2019-05-05T05:11:18.124Z,628.1
2019-05-05T05:12:20.283Z,628.5
2019-05-05T05:13:24.699Z,628.3
2019-05-05T05:14:27.117Z,627.8
2019-05-05T05:15:29.536Z,627.9
2019-05-05T05:16:32.484Z,627.6
2019-05-05T05:17:35.515Z,627.8
2019-05-05T05:18:37.674Z,628
2019-05-05T05:19:40.128Z,627.9
2019-05-05T05:20:41.984Z,628
2019-05-05T05:22:51.084Z,627.7
2019-05-05T05:23:56.140Z,628
2019-05-05T05:24:58.581Z,627.4
2019-05-05T05:26:01.059Z,628.2
2019-05-05T05:27:05.930Z,628.4
2019-05-05T05:28:08.371Z,628.6
2019-05-05T05:29:10.790Z,628.3
2019-05-05T05:31:17.930Z,628.2
2019-05-05T05:32:20.356Z,628.3
2019-05-05T05:33:24.776Z,628.9
2019-05-05T05:34:27.196Z,628.5
2019-05-05T05:35:29.330Z,629.2
2019-05-05T05:36:31.476Z,628.6
2019-05-05T05:37:36.103Z,628.2
2019-05-05T05:38:38.730Z,628.1
2019-05-05T05:39:41.144Z,627.9
2019-05-05T05:40:45.378Z,627.6
2019-05-05T05:41:48.397Z,627.3
2019-05-05T05:42:50.816Z,626.9
2019-05-05T05:43:55.114Z,626.9
2019-05-05T05:44:57.892Z,626.8
2019-05-05T05:46:00.319Z,626.5
2019-05-05T05:47:05.186Z,626.2
2019-05-05T05:48:07.050Z,626
2019-05-05T05:49:09.198Z,625.9
2019-05-05T05:50:14.130Z,625.8
2019-05-05T05:52:25.734Z,625.7
2019-05-05T05:53:27.617Z,625.3
2019-05-05T05:54:29.787Z,625.2
2019-05-05T05:55:34.094Z,625.6
2019-05-05T05:56:39.112Z,625.6
2019-05-05T05:57:43.671Z,625.7
2019-05-05T05:58:46.236Z,625.8
2019-05-05T05:59:48.681Z,625.5
2019-05-05T06:00:51.442Z,625.3
2019-05-05T06:02:58.970Z,624.7
2019-05-05T06:04:01.128Z,624.4
2019-05-05T06:05:05.293Z,624.4
2019-05-05T06:06:07.713Z,624.1
2019-05-05T06:07:10.306Z,624.3
2019-05-05T06:09:18.672Z,623.7
2019-05-05T06:11:25.588Z,623.2
2019-05-05T06:12:27.909Z,623
2019-05-05T06:13:30.407Z,623
2019-05-05T06:14:35.234Z,623.3
2019-05-05T06:15:37.374Z,622.6
2019-05-05T06:16:39.804Z,622.9
2019-05-05T06:17:43.954Z,622.6
2019-05-05T06:18:47.068Z,622.3
2019-05-05T06:19:49.538Z,622.1
2019-05-05T06:20:54.235Z,621.6
2019-05-05T06:21:56.375Z,621.9
2019-05-05T06:22:58.600Z,621.8
2019-05-05T06:24:01.073Z,622
2019-05-05T06:26:09.454Z,621.5
2019-05-05T06:27:14.441Z,621.7
2019-05-05T06:28:16.874Z,621.2
2019-05-05T06:29:20.240Z,621.6
2019-05-05T06:30:24.794Z,621.1
2019-05-05T06:31:27.840Z,620.8
2019-05-05T06:32:30.584Z,620.4
2019-05-05T06:34:39.172Z,620.3
2019-05-05T06:35:41.602Z,620.4
2019-05-05T06:36:45.980Z,620.6
2019-05-05T06:37:48.923Z,620.1
2019-05-05T06:38:50.790Z,620.1
2019-05-05T06:39:55.358Z,620.3
2019-05-05T06:40:57.792Z,620.3
2019-05-05T06:42:00.502Z,620.4
2019-05-05T06:43:04.928Z,620.8
2019-05-05T06:44:08.166Z,620.4
2019-05-05T06:45:10.337Z,621
2019-05-05T06:47:19.170Z,620.3
2019-05-05T06:48:21.044Z,620.2
2019-05-05T06:49:25.768Z,620.2
2019-05-05T06:50:27.650Z,619.5
2019-05-05T06:51:30.074Z,619.9
2019-05-05T06:53:37.199Z,619.6
2019-05-05T06:54:39.610Z,619.5
2019-05-05T06:55:44.264Z,619.7
2019-05-05T06:56:48.660Z,619.4
2019-05-05T06:57:50.811Z,619.7
2019-05-05T06:58:55.457Z,619.2
2019-05-05T06:59:57.890Z,618.9
2019-05-05T07:01:00.039Z,619
2019-05-05T07:02:04.663Z,618.8
2019-05-05T07:04:13.837Z,618.4
2019-05-05T07:05:16.549Z,618.1
2019-05-05T07:06:18.972Z,618
2019-05-05T07:07:21.128Z,618
2019-05-05T07:08:25.916Z,618
2019-05-05T07:09:28.094Z,617.7
2019-05-05T07:10:29.959Z,617.4
2019-05-05T07:11:33.769Z,617.5
2019-05-05T07:12:36.484Z,617.2
2019-05-05T07:13:38.376Z,617.2
2019-05-05T07:14:41.140Z,617.2
2019-05-05T07:16:48.250Z,617
2019-05-05T07:17:50.144Z,616.8
2019-05-05T07:19:58.730Z,616.8
2019-05-05T07:21:00.870Z,616.7
2019-05-05T07:22:05.503Z,616.6
2019-05-05T07:23:07.924Z,616.6
2019-05-05T07:24:11.276Z,616.3
2019-05-05T07:25:15.650Z,616.1
2019-05-05T07:26:17.781Z,616
2019-05-05T07:27:20.211Z,616.4
2019-05-05T07:29:28.694Z,616.1
2019-05-05T07:30:31.110Z,616
2019-05-05T07:31:35.415Z,615.5
2019-05-05T07:32:37.003Z,616
2019-05-05T07:33:39.434Z,615.4
2019-05-05T07:34:43.480Z,615.5
2019-05-05T07:36:51.004Z,615.8
2019-05-05T07:38:58.413Z,615.1
2019-05-05T07:40:00.960Z,615.3
2019-05-05T07:41:05.577Z,615
2019-05-05T07:42:08.029Z,615.7
2019-05-05T07:43:10.183Z,615.2
2019-05-05T07:46:24.596Z,614.9
2019-05-05T07:47:27.020Z,615.1
2019-05-05T07:48:29.725Z,614.8
2019-05-05T07:49:34.032Z,614.7
2019-05-05T07:50:38.385Z,614.8
2019-05-05T07:51:40.936Z,614.6
2019-05-05T07:52:45.305Z,614.7
2019-05-05T07:53:47.724Z,614.4
2019-05-05T07:54:50.097Z,614.8
2019-05-05T07:55:54.144Z,615
2019-05-05T07:56:56.674Z,614.8
2019-05-05T07:57:59.097Z,614.6
2019-05-05T07:59:03.225Z,614.9
2019-05-05T08:00:07.855Z,615
2019-05-05T08:01:10.842Z,614.6
2019-05-05T08:02:15.536Z,615
2019-05-05T08:03:18.159Z,614.7
2019-05-05T08:04:20.034Z,614.5
2019-05-05T08:05:21.891Z,614.4
2019-05-05T08:06:25.690Z,614.7
2019-05-05T08:07:27.722Z,614.3
2019-05-05T08:08:29.881Z,614.2
2019-05-05T08:10:38.630Z,614.4
2019-05-05T08:11:40.786Z,614.6
2019-05-05T08:12:45.253Z,614.5
2019-05-05T08:13:47.394Z,614.7
2019-05-05T08:14:49.816Z,614.4
2019-05-05T08:16:56.949Z,614.8
2019-05-05T08:17:59.566Z,614.6
2019-05-05T08:19:03.794Z,614.5
2019-05-05T08:20:06.046Z,614.4
2019-05-05T08:21:07.974Z,614
2019-05-05T08:22:10.434Z,614.2
2019-05-05T08:24:18.014Z,614
2019-05-05T08:26:25.644Z,614.2
2019-05-05T08:27:28.064Z,613.8
2019-05-05T08:28:30.496Z,614.1
2019-05-05T08:29:34.751Z,614.4
2019-05-05T08:30:37.154Z,614.2
2019-05-05T08:31:39.571Z,613.8
2019-05-05T08:33:48.498Z,614.2
2019-05-05T08:35:56.744Z,614.5
2019-05-05T08:38:06.412Z,614.5
2019-05-05T08:39:08.779Z,614.7
2019-05-05T08:40:11.381Z,614.6
2019-05-05T08:41:16.036Z,614.5
2019-05-05T08:42:18.391Z,614.8
2019-05-05T08:43:20.525Z,614.3
2019-05-05T08:44:24.764Z,614.6
2019-05-05T08:45:28.444Z,614.5
2019-05-05T08:46:30.872Z,614.8
2019-05-05T08:47:35.534Z,615
2019-05-05T08:48:37.961Z,614.8
2019-05-05T08:49:40.313Z,615
2019-05-05T08:50:44.696Z,614.4
2019-05-05T08:51:46.831Z,614.4
2019-05-05T08:52:49.432Z,614.4
2019-05-05T08:53:51.580Z,614.4
2019-05-05T08:54:55.619Z,613.9
2019-05-05T08:55:58.044Z,614.7
2019-05-05T08:57:00.463Z,614.5
2019-05-05T08:59:09.042Z,614.2
2019-05-05T09:00:13.638Z,614.4
2019-05-05T09:01:18.366Z,614.7
2019-05-05T09:02:20.527Z,615
2019-05-05T09:03:24.812Z,614.8
2019-05-05T09:04:26.684Z,615
2019-05-05T09:05:28.838Z,614.9
2019-05-05T09:06:31.262Z,614.6
2019-05-05T09:07:35.590Z,615
2019-05-05T09:08:37.473Z,614.9
2019-05-05T09:09:39.895Z,614.6
2019-05-05T09:10:41.774Z,614.8
2019-05-05T09:11:45.793Z,615.1
2019-05-05T09:12:48.214Z,614.8
2019-05-05T09:13:50.636Z,614.4
2019-05-05T09:14:56.540Z,614.4
2019-05-05T09:15:58.974Z,614.7
2019-05-05T09:17:04.165Z,614.7
2019-05-05T09:18:09.487Z,614.4
2019-05-05T09:19:14.424Z,614.9
2019-05-05T09:20:17.033Z,614.2
2019-05-05T09:21:18.907Z,614.6
2019-05-05T09:22:21.059Z,614.7
2019-05-05T09:23:25.612Z,614.9
2019-05-05T09:24:28.661Z,614.8
2019-05-05T09:25:30.821Z,614.6
2019-05-05T09:26:35.375Z,614.6
2019-05-05T09:27:37.974Z,615
2019-05-05T09:28:40.340Z,615
2019-05-05T09:29:44.635Z,614.9
2019-05-05T09:30:47.005Z,615
2019-05-05T09:31:48.894Z,614.9
2019-05-05T09:32:51.347Z,615
2019-05-05T09:33:55.636Z,615
2019-05-05T09:34:58.670Z,614.9
2019-05-05T09:36:01.305Z,615.2
2019-05-05T09:37:05.665Z,615.3
2019-05-05T09:38:07.803Z,615.2
2019-05-05T09:39:10.814Z,615.4
2019-05-05T09:40:15.084Z,614.8
2019-05-05T09:41:19.392Z,615.3
2019-05-05T09:42:23.222Z,614.9
2019-05-05T09:43:26.144Z,614.7
2019-05-05T09:44:28.574Z,614.6
2019-05-05T09:45:30.448Z,614.8
2019-05-05T09:46:34.781Z,615.1
2019-05-05T09:47:37.214Z,615
2019-05-05T09:48:39.653Z,614.9
2019-05-05T09:49:44.270Z,614.7
2019-05-05T09:50:48.159Z,614.8
2019-05-05T09:51:50.575Z,614.7
2019-05-05T09:52:55.045Z,614.5
2019-05-05T09:55:05.550Z,614.2
2019-05-05T09:56:07.924Z,614.4
2019-05-05T09:57:10.093Z,614.2
2019-05-05T09:58:14.702Z,614.6
2019-05-05T09:59:16.839Z,614.6
2019-05-05T10:00:18.712Z,614.5
2019-05-05T10:01:20.872Z,614.5
2019-05-05T10:02:26.041Z,614.6
2019-05-05T10:03:28.784Z,614.5
2019-05-05T10:04:31.294Z,614.5
2019-05-05T10:05:36.242Z,614.2
2019-05-05T10:06:39.632Z,614.2
2019-05-05T10:07:43.809Z,614.2
2019-05-05T10:08:46.690Z,613.8
2019-05-05T10:09:48.820Z,613.7
2019-05-05T10:10:51.594Z,613.6
2019-05-05T10:11:55.979Z,613.7
2019-05-05T10:12:58.413Z,613.8
2019-05-05T10:14:00.847Z,613.9
2019-05-05T10:16:09.349Z,613.3
2019-05-05T10:17:13.851Z,613.5
2019-05-05T10:18:18.389Z,613.7
2019-05-05T10:19:21.029Z,614
2019-05-05T10:20:26.153Z,613.5
2019-05-05T10:21:28.582Z,614.2
2019-05-05T10:22:31.003Z,613.8
2019-05-05T10:23:35.840Z,613.8
2019-05-05T10:24:37.994Z,613.8
2019-05-05T10:25:40.431Z,613.4
2019-05-05T10:27:49.759Z,613.9
2019-05-05T10:28:54.159Z,613.4
2019-05-05T10:29:58.177Z,613.3
2019-05-05T10:31:00.311Z,613.7
2019-05-05T10:32:06.182Z,614
2019-05-05T10:33:08.584Z,613.4
2019-05-05T10:34:10.719Z,613.6
2019-05-05T10:35:15.432Z,613.8
2019-05-05T10:36:17.843Z,614.2
2019-05-05T10:37:20.597Z,614
2019-05-05T10:38:24.976Z,613.6
2019-05-05T10:39:27.141Z,614
2019-05-05T10:40:29.305Z,613.8
2019-05-05T10:41:33.296Z,614
2019-05-05T10:42:36.186Z,614
2019-05-05T10:43:38.615Z,614
2019-05-05T10:44:41.035Z,614.2
2019-05-05T10:45:46.227Z,614.4
2019-05-05T10:46:48.627Z,614.5
2019-05-05T10:47:50.963Z,614.4
2019-05-05T10:48:55.214Z,614.7
2019-05-05T10:49:59.695Z,614.5
2019-05-05T10:52:09.463Z,614.1
2019-05-05T10:53:13.602Z,614.6
2019-05-05T10:54:15.985Z,614.4
2019-05-05T10:55:18.443Z,614.4
2019-05-05T10:56:20.602Z,614.4
2019-05-05T10:57:24.813Z,614.4
2019-05-05T10:58:27.266Z,614.8
2019-05-05T10:59:29.430Z,614.9
2019-05-05T11:00:33.634Z,614.6
2019-05-05T11:01:35.647Z,614.5
2019-05-05T11:02:38.070Z,614.5
2019-05-05T11:03:40.520Z,614.7
2019-05-05T11:04:45.171Z,614.3
2019-05-05T11:05:47.615Z,614.4
2019-05-05T11:06:49.783Z,613.8
2019-05-05T11:07:54.208Z,614
2019-05-05T11:08:56.646Z,614.2
2019-05-05T11:09:58.802Z,614.2
2019-05-05T11:11:04.042Z,614.4
2019-05-05T11:12:06.671Z,614
2019-05-05T11:13:09.301Z,614.1
2019-05-05T11:14:13.916Z,613.9
2019-05-05T11:15:18.129Z,613.9
2019-05-05T11:16:20.258Z,613.9
2019-05-05T11:18:28.156Z,613.4
2019-05-05T11:19:30.058Z,613.2
2019-05-05T11:20:34.235Z,613.5
2019-05-05T11:21:37.474Z,613
2019-05-05T11:22:39.954Z,613
2019-05-05T11:23:42.109Z,613
2019-05-05T11:25:49.423Z,612.9
2019-05-05T11:26:53.919Z,613.1
2019-05-05T11:27:58.485Z,612.8
2019-05-05T11:29:01.099Z,612.1
2019-05-05T11:31:07.962Z,611.8
2019-05-05T11:32:10.590Z,611.8
2019-05-05T11:33:15.216Z,611.9
2019-05-05T11:34:17.646Z,611.8
2019-05-05T11:35:20.006Z,611.4
2019-05-05T11:36:24.454Z,611.6
2019-05-05T11:37:28.109Z,611.4
2019-05-05T11:38:29.981Z,611.1
2019-05-05T11:39:34.586Z,611.2
2019-05-05T11:40:37.015Z,610.4
2019-05-05T11:41:38.892Z,610.8
2019-05-05T11:42:41.093Z,610.7
2019-05-05T11:43:43.584Z,611.1
2019-05-05T11:45:51.659Z,610.9
2019-05-05T11:49:19.832Z,610.8
2019-05-05T11:51:27.662Z,610.6
2019-05-05T11:52:30.463Z,610.3
2019-05-05T11:54:04.421Z,610.5
2019-05-05T11:57:18.865Z,610.4
2019-05-05T11:58:21.299Z,610.6
2019-05-05T11:59:25.828Z,610.2
2019-05-05T12:00:27.973Z,610.5
2019-05-05T12:01:30.437Z,610.7
2019-05-05T12:02:34.933Z,610.6
2019-05-05T12:04:42.061Z,611.2
2019-05-05T12:05:46.263Z,610.7
2019-05-05T12:06:48.704Z,610.8
2019-05-05T12:07:51.155Z,610.3
2019-05-05T12:08:53.051Z,610.2
2019-05-05T12:09:56.623Z,610.5
2019-05-05T12:12:03.602Z,610.3
2019-05-05T12:13:06.498Z,610.6
2019-05-05T12:14:08.660Z,610.2
2019-05-05T12:15:10.523Z,610.3
2019-05-05T12:16:14.834Z,610
2019-05-05T12:17:17.268Z,610
2019-05-05T12:18:19.692Z,609.7
2019-05-05T12:19:24.749Z,609.6
2019-05-05T12:20:27.181Z,609.7
2019-05-05T12:21:29.341Z,609.6
2019-05-05T12:22:33.667Z,609.7
2019-05-05T12:23:36.247Z,609.5
2019-05-05T12:24:38.870Z,609.8
2019-05-05T12:25:43.587Z,609.7
2019-05-05T12:26:47.926Z,610.1
2019-05-05T12:27:49.803Z,610.2
2019-05-05T12:28:54.330Z,610.1
2019-05-05T12:29:58.747Z,610.3
2019-05-05T12:31:00.931Z,610.4
2019-05-05T12:32:04.115Z,610.2
2019-05-05T12:33:06.832Z,610.1
2019-05-05T12:34:08.685Z,610.1
2019-05-05T12:35:11.803Z,610.1
2019-05-05T12:36:16.954Z,610
2019-05-05T12:37:18.827Z,610.4
2019-05-05T12:38:20.985Z,609.9
2019-05-05T12:39:23.423Z,609.9
2019-05-05T12:40:26.585Z,610.1
2019-05-05T12:41:28.740Z,610.3
2019-05-05T12:42:31.163Z,610.8
2019-05-05T12:44:38.294Z,611
2019-05-05T12:45:40.446Z,610.9
2019-05-05T12:46:45.139Z,611
2019-05-05T12:47:47.735Z,611
2019-05-05T12:48:50.090Z,611
2019-05-05T12:50:58.925Z,611.2
2019-05-05T12:52:01.685Z,611.4
2019-05-05T12:53:05.495Z,611.5
2019-05-05T12:54:07.724Z,611.6
2019-05-05T12:55:10.336Z,611.8
2019-05-05T12:56:15.017Z,611.3
2019-05-05T12:57:17.651Z,611.2
2019-05-05T12:58:20.651Z,611.6
2019-05-05T12:59:25.485Z,611.4
2019-05-05T13:00:27.627Z,611
2019-05-05T13:01:30.050Z,611.5
2019-05-05T13:02:32.643Z,611.7
2019-05-05T13:03:37.219Z,611.5
2019-05-05T13:04:39.649Z,611.6
2019-05-05T13:05:42.075Z,611.7
2019-05-05T13:07:49.515Z,611.8
2019-05-05T13:08:51.966Z,611.2
2019-05-05T13:09:56.437Z,612.2
2019-05-05T13:10:58.892Z,612.1
2019-05-05T13:12:01.315Z,612.2
2019-05-05T13:13:05.486Z,612.1
2019-05-05T13:14:07.373Z,611.7
2019-05-05T13:15:10.139Z,612
2019-05-05T13:17:17.943Z,612.1
2019-05-05T13:18:19.800Z,612
2019-05-05T13:20:29.281Z,611.7
2019-05-05T13:21:31.721Z,612
2019-05-05T13:22:35.212Z,612.2
2019-05-05T13:23:37.641Z,612.3
2019-05-05T13:24:40.065Z,612.5
2019-05-05T13:26:47.477Z,612
2019-05-05T13:27:49.691Z,611.7
2019-05-05T13:28:51.859Z,611.7
2019-05-05T13:29:55.644Z,611.9
2019-05-05T13:30:57.812Z,612.1
2019-05-05T13:32:00.435Z,612
2019-05-05T13:33:04.845Z,612
2019-05-05T13:34:07.268Z,612
2019-05-05T13:35:09.693Z,611.6
2019-05-05T13:37:18.005Z,612.2
2019-05-05T13:38:20.141Z,611.9
2019-05-05T13:39:24.471Z,612.3
2019-05-05T13:40:27.484Z,611.9
2019-05-05T13:41:29.379Z,612
2019-05-05T13:42:31.534Z,612.1
2019-05-05T13:43:36.150Z,611.9
2019-05-05T13:44:38.481Z,611.8
2019-05-05T13:45:40.930Z,611.4
2019-05-05T13:47:48.554Z,611.4
2019-05-05T13:48:50.456Z,611.5
2019-05-05T13:50:59.177Z,611.1
2019-05-05T13:52:04.395Z,611.3
2019-05-05T13:53:09.138Z,611
2019-05-05T13:54:11.050Z,611.1
2019-05-05T13:56:18.437Z,610.8
2019-05-05T13:57:20.783Z,610.6
2019-05-05T13:58:25.591Z,611.1
2019-05-05T13:59:27.725Z,611.2
2019-05-05T14:00:30.513Z,611.1
2019-05-05T14:01:35.159Z,611
2019-05-05T14:02:38.194Z,611.1
2019-05-05T14:03:40.792Z,610.6
2019-05-05T14:04:46.333Z,610.9
2019-05-05T14:05:47.977Z,610.9
2019-05-05T14:06:51.837Z,611
2019-05-05T14:07:55.365Z,610.6
2019-05-05T14:08:57.791Z,610.9
2019-05-05T14:10:01.041Z,610.8
2019-05-05T14:11:05.515Z,610.7
2019-05-05T14:12:08.144Z,611.3
2019-05-05T14:13:12.468Z,610.7
2019-05-05T14:14:15.547Z,610.5
2019-05-05T14:15:17.886Z,611.1
2019-05-05T14:16:20.316Z,611.1
2019-05-05T14:17:22.772Z,610.8
2019-05-05T14:18:25.554Z,611.1
2019-05-05T14:19:28.008Z,610.8
2019-05-05T14:20:30.470Z,611
2019-05-05T14:21:34.886Z,611.4
2019-05-05T14:22:36.773Z,611.2
2019-05-05T14:23:39.711Z,611.1
2019-05-05T14:24:41.578Z,610.8
2019-05-05T14:25:45.863Z,611.6
2019-05-05T14:26:49.222Z,611.4
2019-05-05T14:27:54.005Z,611.3
2019-05-05T14:28:58.465Z,611.7
2019-05-05T14:30:01.268Z,611.3
2019-05-05T14:31:04.579Z,611.1
2019-05-05T14:32:07.284Z,611.7
2019-05-05T14:33:09.714Z,611.6
2019-05-05T14:34:11.601Z,611.5
2019-05-05T14:35:16.174Z,610.8
2019-05-05T14:36:18.535Z,610.5
2019-05-05T14:37:20.602Z,611
2019-05-05T14:39:29.319Z,610.6
2019-05-05T14:40:31.459Z,610.6
2019-05-05T14:41:36.160Z,610.6
2019-05-05T14:42:38.593Z,610.3
2019-05-05T14:43:41.029Z,610.2
2019-05-05T14:44:45.643Z,609.6
2019-05-05T14:45:48.065Z,609.8
2019-05-05T14:46:50.494Z,610
2019-05-05T14:47:54.611Z,609.8
2019-05-05T14:48:57.052Z,609.7
2019-05-05T14:49:59.203Z,610.1
2019-05-05T14:51:03.834Z,610.5
2019-05-05T14:52:08.283Z,609.8
2019-05-05T14:53:11.805Z,610.4
2019-05-05T14:54:16.400Z,610.1
2019-05-05T14:55:22.284Z,609.8
2019-05-05T14:57:33.581Z,610.2
2019-05-05T14:58:36.865Z,609.8